sensor_id;sensor_type;location;lat;lon;timestamp;temperature;humidity
18670;DHT22;9464;44.918;9.670;2023-04-03T00:01:22;13.50;99.90
18670;DHT22;9464;44.918;9.670;2023-04-03T00:03:50;13.50;99.90
18670;DHT22;9464;44.918;9.670;2023-04-03T00:06:20;13.50;99.90
18670;DHT22;9464;44.918;9.670;2023-04-03T00:08:48;13.40;99.90
18670;DHT22;9464;44.918;9.670;2023-04-03T00:11:17;13.40;99.90
18670;DHT22;9464;44.918;9.670;2023-04-03T00:13:45;13.40;99.90
18670;DHT22;9464;44.918;9.670;2023-04-03T00:16:13;13.40;99.90
18670;DHT22;9464;44.918;9.670;2023-04-03T00:18:42;13.40;99.90
18670;DHT22;9464;44.918;9.670;2023-04-03T00:21:12;13.30;99.90
18670;DHT22;9464;44.918;9.670;2023-04-03T00:23:42;13.30;99.90
18670;DHT22;9464;44.918;9.670;2023-04-03T00:26:11;13.30;99.90
18670;DHT22;9464;44.918;9.670;2023-04-03T00:28:39;13.30;99.90
18670;DHT22;9464;44.918;9.670;2023-04-03T00:31:07;13.30;99.90
18670;DHT22;9464;44.918;9.670;2023-04-03T00:33:35;13.30;99.90
18670;DHT22;9464;44.918;9.670;2023-04-03T00:36:08;13.30;99.90
18670;DHT22;9464;44.918;9.670;2023-04-03T00:38:37;13.30;99.90
18670;DHT22;9464;44.918;9.670;2023-04-03T00:41:07;13.20;99.90
18670;DHT22;9464;44.918;9.670;2023-04-03T00:43:35;13.20;99.90
18670;DHT22;9464;44.918;9.670;2023-04-03T00:46:04;13.20;99.90
18670;DHT22;9464;44.918;9.670;2023-04-03T00:48:35;13.20;99.90
18670;DHT22;9464;44.918;9.670;2023-04-03T00:51:06;13.20;99.90
18670;DHT22;9464;44.918;9.670;2023-04-03T00:53:37;13.20;99.90
18670;DHT22;9464;44.918;9.670;2023-04-03T00:56:10;13.20;99.90
18670;DHT22;9464;44.918;9.670;2023-04-03T00:58:41;13.20;99.90
18670;DHT22;9464;44.918;9.670;2023-04-03T01:01:14;13.20;99.90
18670;DHT22;9464;44.918;9.670;2023-04-03T01:03:43;13.20;99.90
18670;DHT22;9464;44.918;9.670;2023-04-03T01:06:13;13.20;99.90
18670;DHT22;9464;44.918;9.670;2023-04-03T01:08:44;13.10;99.90
18670;DHT22;9464;44.918;9.670;2023-04-03T01:11:15;13.10;99.90
18670;DHT22;9464;44.918;9.670;2023-04-03T01:13:43;13.10;99.90
18670;DHT22;9464;44.918;9.670;2023-04-03T01:16:11;13.10;99.90
18670;DHT22;9464;44.918;9.670;2023-04-03T01:18:40;13.10;99.90
18670;DHT22;9464;44.918;9.670;2023-04-03T01:24:30;13.10;99.90
18670;DHT22;9464;44.918;9.670;2023-04-03T01:27:03;12.90;99.90
18670;DHT22;9464;44.918;9.670;2023-04-03T01:29:32;12.90;99.90
18670;DHT22;9464;44.918;9.670;2023-04-03T01:32:03;12.80;99.90
18670;DHT22;9464;44.918;9.670;2023-04-03T01:34:31;12.70;99.90
18670;DHT22;9464;44.918;9.670;2023-04-03T01:36:59;12.70;99.90
18670;DHT22;9464;44.918;9.670;2023-04-03T01:39:28;12.70;99.90
18670;DHT22;9464;44.918;9.670;2023-04-03T01:41:56;12.70;99.90
18670;DHT22;9464;44.918;9.670;2023-04-03T01:44:26;12.70;99.90
18670;DHT22;9464;44.918;9.670;2023-04-03T01:46:54;12.70;99.90
18670;DHT22;9464;44.918;9.670;2023-04-03T01:49:23;12.70;99.90
18670;DHT22;9464;44.918;9.670;2023-04-03T01:51:51;12.80;99.90
18670;DHT22;9464;44.918;9.670;2023-04-03T01:54:20;12.80;99.90
18670;DHT22;9464;44.918;9.670;2023-04-03T01:56:48;12.80;99.90
18670;DHT22;9464;44.918;9.670;2023-04-03T01:59:16;12.70;99.90
18670;DHT22;9464;44.918;9.670;2023-04-03T02:01:46;12.70;99.90
18670;DHT22;9464;44.918;9.670;2023-04-03T02:04:14;12.70;99.90
18670;DHT22;9464;44.918;9.670;2023-04-03T02:06:43;12.70;99.90
18670;DHT22;9464;44.918;9.670;2023-04-03T02:09:12;12.70;99.90
18670;DHT22;9464;44.918;9.670;2023-04-03T02:11:40;12.70;99.90
18670;DHT22;9464;44.918;9.670;2023-04-03T02:14:08;12.70;99.90
18670;DHT22;9464;44.918;9.670;2023-04-03T02:16:36;12.70;99.90
18670;DHT22;9464;44.918;9.670;2023-04-03T02:19:05;12.70;99.90
18670;DHT22;9464;44.918;9.670;2023-04-03T02:21:34;12.70;99.90
18670;DHT22;9464;44.918;9.670;2023-04-03T02:24:03;12.70;99.90
18670;DHT22;9464;44.918;9.670;2023-04-03T02:26:32;12.70;99.90
18670;DHT22;9464;44.918;9.670;2023-04-03T02:29:00;12.60;99.90
18670;DHT22;9464;44.918;9.670;2023-04-03T02:31:28;12.60;99.90
18670;DHT22;9464;44.918;9.670;2023-04-03T02:33:56;12.60;99.90
18670;DHT22;9464;44.918;9.670;2023-04-03T02:36:25;12.50;99.90
18670;DHT22;9464;44.918;9.670;2023-04-03T02:38:53;12.40;99.90
18670;DHT22;9464;44.918;9.670;2023-04-03T02:41:22;12.40;99.90
18670;DHT22;9464;44.918;9.670;2023-04-03T02:43:52;12.50;99.90
18670;DHT22;9464;44.918;9.670;2023-04-03T02:46:20;12.50;99.90
18670;DHT22;9464;44.918;9.670;2023-04-03T02:48:48;12.50;99.90
18670;DHT22;9464;44.918;9.670;2023-04-03T02:51:16;12.50;99.90
18670;DHT22;9464;44.918;9.670;2023-04-03T02:53:44;12.50;99.90
18670;DHT22;9464;44.918;9.670;2023-04-03T02:56:13;12.50;99.90
18670;DHT22;9464;44.918;9.670;2023-04-03T02:58:42;12.50;99.90
18670;DHT22;9464;44.918;9.670;2023-04-03T03:01:11;12.50;99.90
18670;DHT22;9464;44.918;9.670;2023-04-03T03:03:39;12.50;99.90
18670;DHT22;9464;44.918;9.670;2023-04-03T03:06:09;12.50;99.90
18670;DHT22;9464;44.918;9.670;2023-04-03T03:08:38;12.50;99.90
18670;DHT22;9464;44.918;9.670;2023-04-03T03:11:07;12.50;99.90
18670;DHT22;9464;44.918;9.670;2023-04-03T03:13:35;12.30;99.90
18670;DHT22;9464;44.918;9.670;2023-04-03T03:16:05;12.30;99.90
18670;DHT22;9464;44.918;9.670;2023-04-03T03:18:34;12.30;99.90
18670;DHT22;9464;44.918;9.670;2023-04-03T03:21:03;12.30;99.90
18670;DHT22;9464;44.918;9.670;2023-04-03T03:23:32;12.20;99.90
18670;DHT22;9464;44.918;9.670;2023-04-03T03:26:02;12.30;99.90
18670;DHT22;9464;44.918;9.670;2023-04-03T03:28:31;12.30;99.90
18670;DHT22;9464;44.918;9.670;2023-04-03T03:31:00;12.30;99.90
18670;DHT22;9464;44.918;9.670;2023-04-03T03:33:30;12.30;99.90
18670;DHT22;9464;44.918;9.670;2023-04-03T03:35:59;12.30;99.90
18670;DHT22;9464;44.918;9.670;2023-04-03T03:38:27;12.30;99.90
18670;DHT22;9464;44.918;9.670;2023-04-03T03:40:56;12.30;99.90
18670;DHT22;9464;44.918;9.670;2023-04-03T03:43:24;12.30;99.90
18670;DHT22;9464;44.918;9.670;2023-04-03T03:45:53;12.30;99.90
18670;DHT22;9464;44.918;9.670;2023-04-03T03:48:22;12.30;99.90
18670;DHT22;9464;44.918;9.670;2023-04-03T03:50:51;12.30;99.90
18670;DHT22;9464;44.918;9.670;2023-04-03T03:53:20;12.30;99.90
18670;DHT22;9464;44.918;9.670;2023-04-03T03:55:48;12.30;99.90
18670;DHT22;9464;44.918;9.670;2023-04-03T03:58:16;12.20;99.90
18670;DHT22;9464;44.918;9.670;2023-04-03T04:00:44;12.20;99.90
18670;DHT22;9464;44.918;9.670;2023-04-03T04:03:13;12.20;99.90
18670;DHT22;9464;44.918;9.670;2023-04-03T04:05:41;12.20;99.90
18670;DHT22;9464;44.918;9.670;2023-04-03T04:08:10;12.20;99.90
18670;DHT22;9464;44.918;9.670;2023-04-03T04:10:39;12.20;99.90
18670;DHT22;9464;44.918;9.670;2023-04-03T04:13:07;12.10;99.90
18670;DHT22;9464;44.918;9.670;2023-04-03T04:15:35;12.10;99.90
18670;DHT22;9464;44.918;9.670;2023-04-03T04:18:04;12.10;99.90
18670;DHT22;9464;44.918;9.670;2023-04-03T04:20:32;12.10;99.90
18670;DHT22;9464;44.918;9.670;2023-04-03T04:23:00;12.10;99.90
18670;DHT22;9464;44.918;9.670;2023-04-03T04:25:30;12.10;99.90
18670;DHT22;9464;44.918;9.670;2023-04-03T04:27:58;12.10;99.90
18670;DHT22;9464;44.918;9.670;2023-04-03T04:30:26;12.00;99.90
18670;DHT22;9464;44.918;9.670;2023-04-03T04:32:54;12.10;99.90
18670;DHT22;9464;44.918;9.670;2023-04-03T04:35:23;12.00;99.90
18670;DHT22;9464;44.918;9.670;2023-04-03T04:37:51;12.00;99.90
18670;DHT22;9464;44.918;9.670;2023-04-03T04:40:19;12.10;99.90
18670;DHT22;9464;44.918;9.670;2023-04-03T04:42:49;12.00;99.90
18670;DHT22;9464;44.918;9.670;2023-04-03T04:45:17;12.00;99.90
18670;DHT22;9464;44.918;9.670;2023-04-03T04:47:45;12.00;99.90
18670;DHT22;9464;44.918;9.670;2023-04-03T04:50:14;12.00;99.90
18670;DHT22;9464;44.918;9.670;2023-04-03T04:52:43;12.00;99.90
18670;DHT22;9464;44.918;9.670;2023-04-03T04:55:11;12.00;99.90
18670;DHT22;9464;44.918;9.670;2023-04-03T04:57:39;12.00;99.90
18670;DHT22;9464;44.918;9.670;2023-04-03T05:00:10;12.00;99.90
18670;DHT22;9464;44.918;9.670;2023-04-03T05:02:38;12.00;99.90
18670;DHT22;9464;44.918;9.670;2023-04-03T05:05:08;11.90;99.90
18670;DHT22;9464;44.918;9.670;2023-04-03T05:07:36;11.90;99.90
18670;DHT22;9464;44.918;9.670;2023-04-03T05:10:05;11.90;99.90
18670;DHT22;9464;44.918;9.670;2023-04-03T05:12:33;11.90;99.90
18670;DHT22;9464;44.918;9.670;2023-04-03T05:15:02;11.90;99.90
18670;DHT22;9464;44.918;9.670;2023-04-03T05:17:31;11.90;99.90
18670;DHT22;9464;44.918;9.670;2023-04-03T05:20:00;11.80;99.90
18670;DHT22;9464;44.918;9.670;2023-04-03T05:22:28;11.80;99.90
18670;DHT22;9464;44.918;9.670;2023-04-03T05:24:56;11.90;99.90
18670;DHT22;9464;44.918;9.670;2023-04-03T05:27:25;11.90;99.90
18670;DHT22;9464;44.918;9.670;2023-04-03T05:29:55;11.90;99.90
18670;DHT22;9464;44.918;9.670;2023-04-03T05:32:24;12.00;99.90
18670;DHT22;9464;44.918;9.670;2023-04-03T05:34:55;12.00;99.90
18670;DHT22;9464;44.918;9.670;2023-04-03T05:37:25;12.00;99.90
18670;DHT22;9464;44.918;9.670;2023-04-03T05:39:54;12.00;99.90
18670;DHT22;9464;44.918;9.670;2023-04-03T05:42:22;12.10;99.90
18670;DHT22;9464;44.918;9.670;2023-04-03T05:44:50;12.10;99.90
18670;DHT22;9464;44.918;9.670;2023-04-03T05:47:19;12.10;99.90
18670;DHT22;9464;44.918;9.670;2023-04-03T05:49:47;12.10;99.90
18670;DHT22;9464;44.918;9.670;2023-04-03T05:52:22;12.20;99.90
18670;DHT22;9464;44.918;9.670;2023-04-03T05:54:50;12.20;99.90
18670;DHT22;9464;44.918;9.670;2023-04-03T05:57:18;12.30;99.90
18670;DHT22;9464;44.918;9.670;2023-04-03T05:59:47;12.30;99.90
18670;DHT22;9464;44.918;9.670;2023-04-03T06:02:17;12.30;99.90
18670;DHT22;9464;44.918;9.670;2023-04-03T06:04:46;12.40;99.90
18670;DHT22;9464;44.918;9.670;2023-04-03T06:07:16;12.50;99.90
18670;DHT22;9464;44.918;9.670;2023-04-03T06:09:47;12.50;99.90
18670;DHT22;9464;44.918;9.670;2023-04-03T06:12:16;12.50;99.90
18670;DHT22;9464;44.918;9.670;2023-04-03T06:14:44;12.60;99.90
18670;DHT22;9464;44.918;9.670;2023-04-03T06:17:13;12.60;99.90
18670;DHT22;9464;44.918;9.670;2023-04-03T06:19:42;12.60;99.90
18670;DHT22;9464;44.918;9.670;2023-04-03T06:22:10;12.60;99.90
18670;DHT22;9464;44.918;9.670;2023-04-03T06:24:39;12.70;99.90
18670;DHT22;9464;44.918;9.670;2023-04-03T06:27:09;12.70;99.90
18670;DHT22;9464;44.918;9.670;2023-04-03T06:29:39;12.80;99.90
18670;DHT22;9464;44.918;9.670;2023-04-03T06:32:07;12.80;99.90
18670;DHT22;9464;44.918;9.670;2023-04-03T06:34:35;12.90;99.90
18670;DHT22;9464;44.918;9.670;2023-04-03T06:37:03;12.90;99.90
18670;DHT22;9464;44.918;9.670;2023-04-03T06:39:31;12.90;99.90
18670;DHT22;9464;44.918;9.670;2023-04-03T06:42:00;12.90;99.90
18670;DHT22;9464;44.918;9.670;2023-04-03T06:44:29;12.90;99.90
18670;DHT22;9464;44.918;9.670;2023-04-03T06:47:00;13.00;99.90
18670;DHT22;9464;44.918;9.670;2023-04-03T06:49:29;13.00;99.90
18670;DHT22;9464;44.918;9.670;2023-04-03T06:51:57;12.90;99.90
18670;DHT22;9464;44.918;9.670;2023-04-03T06:54:28;12.90;99.90
18670;DHT22;9464;44.918;9.670;2023-04-03T06:56:56;12.90;99.90
18670;DHT22;9464;44.918;9.670;2023-04-03T06:59:24;12.90;99.90
18670;DHT22;9464;44.918;9.670;2023-04-03T07:01:54;12.90;99.90
18670;DHT22;9464;44.918;9.670;2023-04-03T07:04:22;12.90;99.90
18670;DHT22;9464;44.918;9.670;2023-04-03T07:06:51;13.00;99.90
18670;DHT22;9464;44.918;9.670;2023-04-03T07:09:19;13.00;99.90
18670;DHT22;9464;44.918;9.670;2023-04-03T07:11:48;13.00;99.90
18670;DHT22;9464;44.918;9.670;2023-04-03T07:14:16;13.10;99.90
18670;DHT22;9464;44.918;9.670;2023-04-03T07:16:45;13.10;99.90
18670;DHT22;9464;44.918;9.670;2023-04-03T07:19:14;13.10;99.90
18670;DHT22;9464;44.918;9.670;2023-04-03T07:21:43;13.10;99.90
18670;DHT22;9464;44.918;9.670;2023-04-03T07:24:11;13.20;99.90
18670;DHT22;9464;44.918;9.670;2023-04-03T07:26:42;13.20;99.90
18670;DHT22;9464;44.918;9.670;2023-04-03T07:29:12;13.20;99.90
18670;DHT22;9464;44.918;9.670;2023-04-03T07:31:40;13.30;99.90
18670;DHT22;9464;44.918;9.670;2023-04-03T07:34:09;13.30;99.90
18670;DHT22;9464;44.918;9.670;2023-04-03T07:36:38;13.30;99.90
18670;DHT22;9464;44.918;9.670;2023-04-03T07:39:07;13.30;99.90
18670;DHT22;9464;44.918;9.670;2023-04-03T07:41:35;13.40;99.90
18670;DHT22;9464;44.918;9.670;2023-04-03T07:44:04;13.40;99.90
18670;DHT22;9464;44.918;9.670;2023-04-03T07:46:32;13.30;99.90
18670;DHT22;9464;44.918;9.670;2023-04-03T07:49:00;13.30;99.90
18670;DHT22;9464;44.918;9.670;2023-04-03T07:51:29;13.30;99.90
18670;DHT22;9464;44.918;9.670;2023-04-03T07:53:58;13.20;99.90
18670;DHT22;9464;44.918;9.670;2023-04-03T07:56:27;13.20;99.90
18670;DHT22;9464;44.918;9.670;2023-04-03T07:58:55;13.30;99.90
18670;DHT22;9464;44.918;9.670;2023-04-03T08:01:23;13.30;99.90
18670;DHT22;9464;44.918;9.670;2023-04-03T08:03:51;13.40;99.90
18670;DHT22;9464;44.918;9.670;2023-04-03T08:06:19;13.30;99.90
18670;DHT22;9464;44.918;9.670;2023-04-03T08:09:04;13.30;99.90
18670;DHT22;9464;44.918;9.670;2023-04-03T08:11:33;13.30;99.90
18670;DHT22;9464;44.918;9.670;2023-04-03T08:14:03;13.40;99.90
18670;DHT22;9464;44.918;9.670;2023-04-03T08:16:31;13.30;99.90
18670;DHT22;9464;44.918;9.670;2023-04-03T08:18:59;13.30;99.90
18670;DHT22;9464;44.918;9.670;2023-04-03T08:21:28;13.30;99.90
18670;DHT22;9464;44.918;9.670;2023-04-03T08:23:56;13.30;99.90
18670;DHT22;9464;44.918;9.670;2023-04-03T08:26:26;13.30;99.90
18670;DHT22;9464;44.918;9.670;2023-04-03T08:28:54;13.40;99.90
18670;DHT22;9464;44.918;9.670;2023-04-03T08:31:22;13.40;99.90
18670;DHT22;9464;44.918;9.670;2023-04-03T08:33:51;13.40;99.90
18670;DHT22;9464;44.918;9.670;2023-04-03T08:36:21;13.50;99.90
18670;DHT22;9464;44.918;9.670;2023-04-03T08:38:50;13.50;99.90
18670;DHT22;9464;44.918;9.670;2023-04-03T08:41:25;13.60;99.90
18670;DHT22;9464;44.918;9.670;2023-04-03T08:44:11;13.60;99.90
18670;DHT22;9464;44.918;9.670;2023-04-03T08:47:06;13.60;99.90
18670;DHT22;9464;44.918;9.670;2023-04-03T08:49:41;13.60;99.90
18670;DHT22;9464;44.918;9.670;2023-04-03T08:52:16;13.60;99.90
18670;DHT22;9464;44.918;9.670;2023-04-03T08:54:50;13.60;99.90
18670;DHT22;9464;44.918;9.670;2023-04-03T08:57:26;13.60;99.90
18670;DHT22;9464;44.918;9.670;2023-04-03T08:59:58;13.60;99.90
18670;DHT22;9464;44.918;9.670;2023-04-03T09:02:33;13.60;99.90
18670;DHT22;9464;44.918;9.670;2023-04-03T09:05:11;13.60;99.90
18670;DHT22;9464;44.918;9.670;2023-04-03T09:07:44;13.60;99.90
18670;DHT22;9464;44.918;9.670;2023-04-03T09:10:18;13.70;99.90
18670;DHT22;9464;44.918;9.670;2023-04-03T09:12:53;13.70;99.90
18670;DHT22;9464;44.918;9.670;2023-04-03T09:15:26;13.70;99.90
18670;DHT22;9464;44.918;9.670;2023-04-03T09:18:11;13.70;99.90
18670;DHT22;9464;44.918;9.670;2023-04-03T09:20:45;13.70;99.90
18670;DHT22;9464;44.918;9.670;2023-04-03T09:23:19;13.70;99.90
18670;DHT22;9464;44.918;9.670;2023-04-03T09:25:50;13.80;99.90
18670;DHT22;9464;44.918;9.670;2023-04-03T09:28:21;13.90;99.90
18670;DHT22;9464;44.918;9.670;2023-04-03T09:30:50;13.90;99.90
18670;DHT22;9464;44.918;9.670;2023-04-03T09:33:19;13.90;99.90
18670;DHT22;9464;44.918;9.670;2023-04-03T09:35:50;13.90;99.90
18670;DHT22;9464;44.918;9.670;2023-04-03T09:38:20;14.00;99.90
18670;DHT22;9464;44.918;9.670;2023-04-03T09:40:50;13.90;99.90
18670;DHT22;9464;44.918;9.670;2023-04-03T09:43:25;13.90;99.90
18670;DHT22;9464;44.918;9.670;2023-04-03T09:45:56;14.00;99.90
18670;DHT22;9464;44.918;9.670;2023-04-03T09:48:25;13.90;99.90
18670;DHT22;9464;44.918;9.670;2023-04-03T09:51:00;14.00;99.90
18670;DHT22;9464;44.918;9.670;2023-04-03T09:53:33;14.10;99.90
18670;DHT22;9464;44.918;9.670;2023-04-03T09:56:04;14.20;99.90
18670;DHT22;9464;44.918;9.670;2023-04-03T09:58:37;14.10;99.90
18670;DHT22;9464;44.918;9.670;2023-04-03T10:01:27;14.20;99.90
18670;DHT22;9464;44.918;9.670;2023-04-03T10:04:08;14.20;99.90
18670;DHT22;9464;44.918;9.670;2023-04-03T10:06:39;14.20;99.90
18670;DHT22;9464;44.918;9.670;2023-04-03T10:09:19;14.30;99.90
18670;DHT22;9464;44.918;9.670;2023-04-03T10:11:59;14.30;99.90
18670;DHT22;9464;44.918;9.670;2023-04-03T10:14:28;14.40;99.90
18670;DHT22;9464;44.918;9.670;2023-04-03T10:17:04;14.40;99.90
18670;DHT22;9464;44.918;9.670;2023-04-03T10:19:36;14.40;99.90
18670;DHT22;9464;44.918;9.670;2023-04-03T10:22:16;14.50;99.90
18670;DHT22;9464;44.918;9.670;2023-04-03T10:24:58;14.50;99.90
18670;DHT22;9464;44.918;9.670;2023-04-03T10:27:37;14.50;99.90
18670;DHT22;9464;44.918;9.670;2023-04-03T10:30:25;14.60;99.90
18670;DHT22;9464;44.918;9.670;2023-04-03T10:33:06;14.70;99.90
18670;DHT22;9464;44.918;9.670;2023-04-03T10:35:45;14.70;99.90
18670;DHT22;9464;44.918;9.670;2023-04-03T10:38:23;14.70;99.90
18670;DHT22;9464;44.918;9.670;2023-04-03T10:41:01;14.80;99.90
18670;DHT22;9464;44.918;9.670;2023-04-03T10:43:36;14.80;99.90
18670;DHT22;9464;44.918;9.670;2023-04-03T10:46:10;14.80;99.90
18670;DHT22;9464;44.918;9.670;2023-04-03T10:49:00;14.90;99.90
18670;DHT22;9464;44.918;9.670;2023-04-03T10:51:36;14.90;99.90
18670;DHT22;9464;44.918;9.670;2023-04-03T10:54:10;15.00;99.90
18670;DHT22;9464;44.918;9.670;2023-04-03T10:56:41;15.00;99.90
18670;DHT22;9464;44.918;9.670;2023-04-03T10:59:20;15.10;99.90
18670;DHT22;9464;44.918;9.670;2023-04-03T11:01:54;15.10;99.90
18670;DHT22;9464;44.918;9.670;2023-04-03T11:04:27;15.00;99.90
18670;DHT22;9464;44.918;9.670;2023-04-03T11:07:00;15.10;99.90
18670;DHT22;9464;44.918;9.670;2023-04-03T11:09:32;15.10;99.90
18670;DHT22;9464;44.918;9.670;2023-04-03T11:12:09;15.10;99.90
18670;DHT22;9464;44.918;9.670;2023-04-03T11:14:39;15.10;99.90
18670;DHT22;9464;44.918;9.670;2023-04-03T11:17:19;15.10;99.90
18670;DHT22;9464;44.918;9.670;2023-04-03T11:19:57;15.20;99.90
18670;DHT22;9464;44.918;9.670;2023-04-03T11:22:31;15.20;99.90
18670;DHT22;9464;44.918;9.670;2023-04-03T11:25:04;15.30;99.90
18670;DHT22;9464;44.918;9.670;2023-04-03T11:27:41;15.30;99.90
18670;DHT22;9464;44.918;9.670;2023-04-03T11:30:16;15.30;99.90
18670;DHT22;9464;44.918;9.670;2023-04-03T11:33:18;15.20;99.90
18670;DHT22;9464;44.918;9.670;2023-04-03T11:35:52;15.20;99.90
18670;DHT22;9464;44.918;9.670;2023-04-03T11:38:24;15.30;99.90
18670;DHT22;9464;44.918;9.670;2023-04-03T11:40:55;15.30;99.90
18670;DHT22;9464;44.918;9.670;2023-04-03T11:43:27;15.40;99.90
18670;DHT22;9464;44.918;9.670;2023-04-03T11:45:58;15.40;99.90
18670;DHT22;9464;44.918;9.670;2023-04-03T11:48:52;15.50;99.90
18670;DHT22;9464;44.918;9.670;2023-04-03T11:51:41;15.60;99.90
18670;DHT22;9464;44.918;9.670;2023-04-03T11:58:02;15.60;99.90
18670;DHT22;9464;44.918;9.670;2023-04-03T12:01:06;15.60;99.90
18670;DHT22;9464;44.918;9.670;2023-04-03T12:10:14;15.60;99.90
18670;DHT22;9464;44.918;9.670;2023-04-03T12:12:58;15.70;99.90
18670;DHT22;9464;44.918;9.670;2023-04-03T12:15:51;15.70;99.90
18670;DHT22;9464;44.918;9.670;2023-04-03T12:18:55;15.70;99.90
18670;DHT22;9464;44.918;9.670;2023-04-03T12:21:24;15.70;99.90
18670;DHT22;9464;44.918;9.670;2023-04-03T12:24:27;15.70;99.90
18670;DHT22;9464;44.918;9.670;2023-04-03T12:27:09;15.70;99.90
18670;DHT22;9464;44.918;9.670;2023-04-03T12:29:47;15.70;99.90
18670;DHT22;9464;44.918;9.670;2023-04-03T12:32:29;15.70;99.90
18670;DHT22;9464;44.918;9.670;2023-04-03T12:35:14;15.80;99.90
18670;DHT22;9464;44.918;9.670;2023-04-03T12:38:14;15.80;99.90
18670;DHT22;9464;44.918;9.670;2023-04-03T12:40:51;15.70;99.90
18670;DHT22;9464;44.918;9.670;2023-04-03T12:43:35;15.80;99.90
18670;DHT22;9464;44.918;9.670;2023-04-03T12:46:12;15.80;99.90
18670;DHT22;9464;44.918;9.670;2023-04-03T12:48:51;15.90;99.90
18670;DHT22;9464;44.918;9.670;2023-04-03T12:51:22;15.80;99.90
18670;DHT22;9464;44.918;9.670;2023-04-03T12:54:01;15.80;99.90
18670;DHT22;9464;44.918;9.670;2023-04-03T12:56:32;15.90;99.90
18670;DHT22;9464;44.918;9.670;2023-04-03T12:59:14;15.90;99.90
18670;DHT22;9464;44.918;9.670;2023-04-03T13:01:43;16.00;99.90
18670;DHT22;9464;44.918;9.670;2023-04-03T13:04:12;15.90;99.90
18670;DHT22;9464;44.918;9.670;2023-04-03T13:06:41;15.90;99.90
18670;DHT22;9464;44.918;9.670;2023-04-03T13:09:20;16.00;99.90
18670;DHT22;9464;44.918;9.670;2023-04-03T13:11:54;16.00;99.90
18670;DHT22;9464;44.918;9.670;2023-04-03T13:14:26;15.90;99.90
18670;DHT22;9464;44.918;9.670;2023-04-03T13:16:56;15.90;99.90
18670;DHT22;9464;44.918;9.670;2023-04-03T13:19:26;15.90;99.90
18670;DHT22;9464;44.918;9.670;2023-04-03T13:21:59;15.90;99.90
18670;DHT22;9464;44.918;9.670;2023-04-03T13:24:29;15.90;99.90
18670;DHT22;9464;44.918;9.670;2023-04-03T13:27:00;15.80;99.90
18670;DHT22;9464;44.918;9.670;2023-04-03T13:29:31;15.70;99.90
18670;DHT22;9464;44.918;9.670;2023-04-03T13:32:01;15.70;99.90
18670;DHT22;9464;44.918;9.670;2023-04-03T13:34:36;15.80;99.90
18670;DHT22;9464;44.918;9.670;2023-04-03T13:37:05;15.80;99.90
18670;DHT22;9464;44.918;9.670;2023-04-03T13:39:37;15.70;99.90
18670;DHT22;9464;44.918;9.670;2023-04-03T13:42:20;15.70;99.90
18670;DHT22;9464;44.918;9.670;2023-04-03T13:45:05;15.70;99.90
18670;DHT22;9464;44.918;9.670;2023-04-03T13:47:38;15.80;99.90
18670;DHT22;9464;44.918;9.670;2023-04-03T13:50:16;15.80;99.90
18670;DHT22;9464;44.918;9.670;2023-04-03T13:52:46;15.70;99.90
18670;DHT22;9464;44.918;9.670;2023-04-03T13:55:20;15.80;99.90
18670;DHT22;9464;44.918;9.670;2023-04-03T13:57:56;15.70;99.90
18670;DHT22;9464;44.918;9.670;2023-04-03T14:00:31;15.70;99.90
18670;DHT22;9464;44.918;9.670;2023-04-03T14:02:59;15.70;99.90
18670;DHT22;9464;44.918;9.670;2023-04-03T14:05:28;15.70;99.90
18670;DHT22;9464;44.918;9.670;2023-04-03T14:07:57;15.70;99.90
18670;DHT22;9464;44.918;9.670;2023-04-03T14:10:25;15.80;99.90
18670;DHT22;9464;44.918;9.670;2023-04-03T14:12:55;15.70;99.90
18670;DHT22;9464;44.918;9.670;2023-04-03T14:15:25;15.80;99.90
18670;DHT22;9464;44.918;9.670;2023-04-03T14:17:55;15.80;99.90
18670;DHT22;9464;44.918;9.670;2023-04-03T14:20:26;15.70;99.90
18670;DHT22;9464;44.918;9.670;2023-04-03T14:22:55;15.70;99.90
18670;DHT22;9464;44.918;9.670;2023-04-03T14:25:24;15.70;99.90
18670;DHT22;9464;44.918;9.670;2023-04-03T14:27:53;15.70;99.90
18670;DHT22;9464;44.918;9.670;2023-04-03T14:30:26;15.70;99.90
18670;DHT22;9464;44.918;9.670;2023-04-03T14:32:55;15.70;99.90
18670;DHT22;9464;44.918;9.670;2023-04-03T14:35:24;15.70;99.90
18670;DHT22;9464;44.918;9.670;2023-04-03T14:37:54;15.70;99.90
18670;DHT22;9464;44.918;9.670;2023-04-03T14:40:24;15.70;99.90
18670;DHT22;9464;44.918;9.670;2023-04-03T14:42:53;15.70;99.90
18670;DHT22;9464;44.918;9.670;2023-04-03T14:45:25;15.70;99.90
18670;DHT22;9464;44.918;9.670;2023-04-03T14:47:55;15.60;99.90
18670;DHT22;9464;44.918;9.670;2023-04-03T14:50:25;15.60;99.90
18670;DHT22;9464;44.918;9.670;2023-04-03T14:52:56;15.50;99.90
18670;DHT22;9464;44.918;9.670;2023-04-03T14:55:26;15.50;99.90
18670;DHT22;9464;44.918;9.670;2023-04-03T14:57:54;15.50;99.90
18670;DHT22;9464;44.918;9.670;2023-04-03T15:00:22;15.50;99.90
18670;DHT22;9464;44.918;9.670;2023-04-03T15:02:52;15.50;99.90
18670;DHT22;9464;44.918;9.670;2023-04-03T15:05:20;15.50;99.90
18670;DHT22;9464;44.918;9.670;2023-04-03T15:07:52;15.40;99.90
18670;DHT22;9464;44.918;9.670;2023-04-03T15:10:23;15.50;99.90
18670;DHT22;9464;44.918;9.670;2023-04-03T15:12:51;15.50;99.90
18670;DHT22;9464;44.918;9.670;2023-04-03T15:15:21;15.40;99.90
18670;DHT22;9464;44.918;9.670;2023-04-03T15:17:53;15.40;99.90
18670;DHT22;9464;44.918;9.670;2023-04-03T15:20:23;15.30;99.90
18670;DHT22;9464;44.918;9.670;2023-04-03T15:22:52;15.30;99.90
18670;DHT22;9464;44.918;9.670;2023-04-03T15:25:23;15.30;99.90
18670;DHT22;9464;44.918;9.670;2023-04-03T15:27:52;15.20;99.90
18670;DHT22;9464;44.918;9.670;2023-04-03T15:30:20;15.20;99.90
18670;DHT22;9464;44.918;9.670;2023-04-03T15:32:49;15.20;99.90
18670;DHT22;9464;44.918;9.670;2023-04-03T15:35:19;15.10;99.90
18670;DHT22;9464;44.918;9.670;2023-04-03T15:37:47;15.10;99.90
18670;DHT22;9464;44.918;9.670;2023-04-03T15:40:16;15.10;99.90
18670;DHT22;9464;44.918;9.670;2023-04-03T15:42:44;15.00;99.90
18670;DHT22;9464;44.918;9.670;2023-04-03T15:45:12;15.00;99.90
18670;DHT22;9464;44.918;9.670;2023-04-03T15:47:41;15.00;99.90
18670;DHT22;9464;44.918;9.670;2023-04-03T15:50:10;14.90;99.90
18670;DHT22;9464;44.918;9.670;2023-04-03T15:52:40;15.00;99.90
18670;DHT22;9464;44.918;9.670;2023-04-03T15:55:08;14.90;99.90
18670;DHT22;9464;44.918;9.670;2023-04-03T15:57:36;14.80;99.90
18670;DHT22;9464;44.918;9.670;2023-04-03T16:00:07;14.90;99.90
18670;DHT22;9464;44.918;9.670;2023-04-03T16:02:35;14.90;99.90
18670;DHT22;9464;44.918;9.670;2023-04-03T16:05:04;14.80;99.90
18670;DHT22;9464;44.918;9.670;2023-04-03T16:07:32;14.80;99.90
18670;DHT22;9464;44.918;9.670;2023-04-03T16:10:02;14.80;99.90
18670;DHT22;9464;44.918;9.670;2023-04-03T16:12:31;14.80;99.90
18670;DHT22;9464;44.918;9.670;2023-04-03T16:14:59;14.70;99.90
18670;DHT22;9464;44.918;9.670;2023-04-03T16:17:27;14.60;99.90
18670;DHT22;9464;44.918;9.670;2023-04-03T16:19:56;14.60;99.90
18670;DHT22;9464;44.918;9.670;2023-04-03T16:22:25;14.50;99.90
18670;DHT22;9464;44.918;9.670;2023-04-03T16:24:54;14.50;99.90